Stolt Stream — ZCSR — position and weather

sailwx.info

Track history (hours):
 
Tides and Currents Weather Stations Pressure Air Temp Water Temp Dewpoint Dewpoint Depression Visibility Wind Speed Wind Dir Waves Ship Positions

Stolt Stream

Last reported at 2018-Jun-18 15:28 UTC. Time now 2018-Jun-18 15:31 UTC.
Position N 28°54' W 095°13'.

Length 162 m; draft 9.9 m.

Type: Ship (hazmat cat A). MMSI: 319469000.

Date/timePositionNaut miles runAvg speedWind from/ knotsBaromVisibWave heightAir tempDewpointWater temp
2018-Jun-18 15:28N 28°54' W 095°13'0 0.0
2018-Jun-18 14:58N 28°54' W 095°13'0 0.0
2018-Jun-18 14:22N 28°54' W 095°13'0 0.0
2018-Jun-18 13:58N 28°54' W 095°13'0 0.0
2018-Jun-18 13:28N 28°54' W 095°13'0 0.0
2018-Jun-18 12:52N 28°54' W 095°13'0 0.0
2018-Jun-18 12:28N 28°54' W 095°13'0 0.0
2018-Jun-18 10:37N 28°54' W 095°13'0 0.1
2018-Jun-18 10:16N 28°54' W 095°13'0 0.0
2018-Jun-18 09:55N 28°54' W 095°13'0 0.0
2018-Jun-18 09:28N 28°54' W 095°13'0 0.0
2018-Jun-18 08:52N 28°54' W 095°13'0 0.0
2018-Jun-18 08:28N 28°54' W 095°13'0 0.0
2018-Jun-18 07:49N 28°54' W 095°13'0 0.0
2018-Jun-18 07:28N 28°54' W 095°13'0 0.0
2018-Jun-18 06:58N 28°54' W 095°13'0 0.0
2018-Jun-18 06:19N 28°54' W 095°13'0 0.0
2018-Jun-18 05:55N 28°54' W 095°13'0 0.0
2018-Jun-18 05:25N 28°54' W 095°13'0 0.0
2018-Jun-18 04:58N 28°54' W 095°13'0 0.0
2018-Jun-18 04:28N 28°54' W 095°13'0 0.0
2018-Jun-18 03:58N 28°54' W 095°13'0 0.0
2018-Jun-18 03:28N 28°54' W 095°13'0 0.0
2018-Jun-18 02:58N 28°54' W 095°13'0 0.0
2018-Jun-18 02:28N 28°54' W 095°13'0 0.0
2018-Jun-18 01:58N 28°54' W 095°13'0 0.0
2018-Jun-18 01:16N 28°54' W 095°13'0 0.1
2018-Jun-18 00:55N 28°54' W 095°13'0 0.0
2018-Jun-18 00:28N 28°54' W 095°13'0 0.0
2018-Jun-17 23:49N 28°54' W 095°13'0 0.0
2018-Jun-17 23:28N 28°54' W 095°13'0 0.0
2018-Jun-17 22:58N 28°54' W 095°13'0 0.0
2018-Jun-17 22:28N 28°54' W 095°13'0 0.0
2018-Jun-17 21:55N 28°54' W 095°13'0 0.0
2018-Jun-17 21:25N 28°54' W 095°13'0 0.0
2018-Jun-17 20:58N 28°54' W 095°13'0 0.0
2018-Jun-17 20:25N 28°54' W 095°13'0 0.0
2018-Jun-17 19:58N 28°54' W 095°13'0 0.0
2018-Jun-17 19:25N 28°54' W 095°13'0 0.0
2018-Jun-17 18:46N 28°54' W 095°13'0 0.0
2018-Jun-17 18:28N 28°54' W 095°13'0 0.0
2018-Jun-17 17:58N 28°54' W 095°13'0 0.0
2018-Jun-17 16:37N 28°54' W 095°13'0 0.1
2018-Jun-17 16:28N 28°54' W 095°13'0 0.0
2018-Jun-17 15:58N 28°54' W 095°13'0 0.0
2018-Jun-17 15:28N 28°54' W 095°13'0 0.0
2018-Jun-17 14:52N 28°54' W 095°13'0 0.0
2018-Jun-17 03:22N 28°54' W 095°13'0 0.0
2018-Jun-17 02:58N 28°54' W 095°13'0 0.0
2018-Jun-17 02:28N 28°54' W 095°13'0 0.0
2018-Jun-17 01:58N 28°54' W 095°13'0 0.0
2018-Jun-17 01:25N 28°54' W 095°13'0 0.0
2018-Jun-17 00:58N 28°54' W 095°13'0 0.1
2018-Jun-17 00:25N 28°54' W 095°13'0 0.0
2018-Jun-16 23:58N 28°54' W 095°13'0 0.0
2018-Jun-16 23:28N 28°54' W 095°13'0 0.0
2018-Jun-16 22:58N 28°54' W 095°13'0 0.0
2018-Jun-16 22:28N 28°54' W 095°13'0 0.0
2018-Jun-16 19:31N 28°54' W 095°13'0 0.0
2018-Jun-16 19:13N 28°54' W 095°13'0 0.0
2018-Jun-16 18:52N 28°54' W 095°13'0 0.0
2018-Jun-16 18:28N 28°54' W 095°13'0 0.0
2018-Jun-16 17:58N 28°54' W 095°13'0 0.0
2018-Jun-16 17:22N 28°54' W 095°13'0 0.0
2018-Jun-16 16:58N 28°54' W 095°13'0 0.0
2018-Jun-16 16:22N 28°54' W 095°13'0 0.3
2018-Jun-16 16:01N 28°54' W 095°13'4 7.5
2018-Jun-16 15:30N 28°53' W 095°09'612.7
2018-Jun-16 15:00N 28°52' W 095°02'2 3.3
2018-Jun-16 14:30N 28°50' W 095°03'1114.2
2018-Jun-16 13:46N 28°54' W 095°14'2 8.0
2018-Jun-16 13:30N 28°55' W 095°16'3 0.1
2018-Jun-15 08:21N 28°57' W 095°19'0 0.6
2018-Jun-15 07:59N 28°56' W 095°19'3 7.2
2018-Jun-15 07:30N 28°54' W 095°16'4 7.4
2018-Jun-15 06:59N 28°54' W 095°11'0 0.0
2018-Jun-15 04:53N 28°54' W 095°11'0 0.0
2018-Jun-15 04:17N 28°54' W 095°11'0 0.0
2018-Jun-15 03:59N 28°54' W 095°11'0 0.0
2018-Jun-15 03:02N 28°54' W 095°11'0 0.0
2018-Jun-15 02:59N 28°54' W 095°11'0 0.0
2018-Jun-15 02:29N 28°54' W 095°11'0 0.0
2018-Jun-15 01:59N 28°54' W 095°11'0 0.0
2018-Jun-15 01:26N 28°54' W 095°11'0 0.0
2018-Jun-15 00:59N 28°54' W 095°11'0 0.0
2018-Jun-15 00:29N 28°54' W 095°11'0 0.0
2018-Jun-14 23:59N 28°54' W 095°11'0 0.0
2018-Jun-14 23:29N 28°54' W 095°11'0 0.0
2018-Jun-14 22:56N 28°54' W 095°11'0 0.0
2018-Jun-14 22:26N 28°54' W 095°11'0 0.0
2018-Jun-14 21:59N 28°54' W 095°11'0 0.0
2018-Jun-14 21:20N 28°54' W 095°11'0 0.0
2018-Jun-14 20:56N 28°54' W 095°11'0 0.0
2018-Jun-14 20:29N 28°54' W 095°11'0 0.0
2018-Jun-14 19:50N 28°54' W 095°11'0 0.0
2018-Jun-14 17:38N 28°54' W 095°11'0 0.1
2018-Jun-14 17:29N 28°54' W 095°11'0 0.0
2018-Jun-14 16:26N 28°54' W 095°11'0 0.0
2018-Jun-14 15:59N 28°54' W 095°11'0 0.0
2018-Jun-14 15:26N 28°54' W 095°11'0 0.0
2018-Jun-14 14:59N 28°54' W 095°11'0 0.0
2018-Jun-14 14:29N 28°54' W 095°11'0 0.0
2018-Jun-14 13:56N 28°54' W 095°11'0 0.0
2018-Jun-14 13:29N 28°54' W 095°11'0 0.1
2018-Jun-14 12:59N 28°54' W 095°11'3 6.0
2018-Jun-14 12:29N 28°51' W 095°12'510.6
2018-Jun-14 11:58N 28°47' W 095°08'3 7.4
2018-Jun-14 11:30N 28°46' W 095°05'4 8.3
2018-Jun-14 11:00N 28°48' W 095°01'4 8.1
2018-Jun-14 10:29N 28°50' W 094°57'4 8.0
2018-Jun-14 10:00N 28°52' W 094°53'4 7.9
2018-Jun-14 09:30N 28°54' W 094°49'4 8.1
2018-Jun-14 09:00N 28°57' W 094°46'4 8.5
2018-Jun-14 08:29N 28°59' W 094°42'15 9.0
2018-Jun-14 06:49N 29°11' W 094°30'411.7
2018-Jun-14 06:30N 29°14' W 094°33'610.9
2018-Jun-14 06:00N 29°18' W 094°37'611.8
2018-Jun-14 05:30N 29°21' W 094°43'713.3
2018-Jun-14 05:00N 29°24' W 094°49'814.6
2018-Jun-14 04:29N 29°31' W 094°53'613.3
2018-Jun-14 04:00N 29°36' W 094°57'510.8
2018-Jun-14 03:30N 29°41' W 094°59'4 8.5
2018-Jun-14 03:00N 29°44' W 095°03'2 0.1
2018-Jun-12 20:53N 29°42' W 095°01'411.1
2018-Jun-12 20:30N 29°39' W 094°58'611.7
2018-Jun-12 20:00N 29°34' W 094°55'913.2
2018-Jun-12 19:19N 29°26' W 094°50'413.2
2018-Jun-12 19:00N 29°22' W 094°48'612.7
2018-Jun-12 18:30N 29°20' W 094°41'510.9
2018-Jun-12 18:00N 29°18' W 094°35'2 3.8
2018-Jun-12 17:30N 29°18' W 094°33'1 0.0
2018-Jun-11 05:05N 29°19' W 094°34'0 1.6
2018-Jun-11 05:00N 29°19' W 094°34'3 6.6
2018-Jun-11 04:29N 29°16' W 094°33'611.0
2018-Jun-11 03:58N 29°12' W 094°27'31 0.9
2018-Jun-09 18:08N 29°32' W 094°54'212.9
2018-Jun-09 18:00N 29°34' W 094°55'510.1
2018-Jun-09 17:30N 29°37' W 094°60'1 2.9
2018-Jun-09 17:00N 29°37' W 095°01'0 0.0
2018-Jun-09 16:28N 29°37' W 095°01'0 0.0
2018-Jun-09 15:58N 29°37' W 095°01'0 0.0
2018-Jun-09 14:55N 29°37' W 095°01'0 0.0
2018-Jun-09 14:22N 29°37' W 095°01'0 0.0
2018-Jun-09 13:58N 29°37' W 095°01'0 0.0
2018-Jun-09 13:28N 29°37' W 095°01'0 0.0
2018-Jun-09 12:58N 29°37' W 095°01'0 0.0
2018-Jun-09 12:19N 29°37' W 095°01'0 0.0
2018-Jun-09 11:58N 29°37' W 095°01'0 0.0
2018-Jun-09 11:28N 29°37' W 095°01'0 0.0
2018-Jun-09 10:58N 29°37' W 095°01'0 0.0
2018-Jun-09 10:25N 29°37' W 095°01'0 0.0
2018-Jun-09 09:55N 29°37' W 095°01'0 0.0
2018-Jun-09 09:28N 29°37' W 095°01'0 0.0
2018-Jun-09 08:58N 29°37' W 095°01'0 0.0
2018-Jun-09 08:22N 29°37' W 095°01'0 0.0
2018-Jun-09 07:58N 29°37' W 095°01'0 0.0
2018-Jun-09 07:25N 29°37' W 095°01'0 0.0
2018-Jun-09 06:55N 29°37' W 095°01'0 0.0
2018-Jun-09 06:25N 29°37' W 095°01'0 0.0
2018-Jun-09 05:58N 29°37' W 095°01'0 0.0
2018-Jun-09 05:25N 29°37' W 095°01'0 0.0
2018-Jun-09 04:58N 29°37' W 095°01'0 0.0
2018-Jun-09 04:28N 29°37' W 095°01'0 0.0
2018-Jun-09 03:58N 29°37' W 095°01'0 0.0
2018-Jun-09 03:28N 29°37' W 095°01'0 0.0
2018-Jun-09 02:55N 29°37' W 095°01'0 0.0
2018-Jun-09 02:28N 29°37' W 095°01'0 0.0
2018-Jun-09 01:58N 29°37' W 095°01'0 0.0
2018-Jun-09 01:25N 29°37' W 095°01'0 0.0
2018-Jun-09 00:55N 29°37' W 095°01'0 0.0
2018-Jun-09 00:28N 29°37' W 095°01'0 0.0
2018-Jun-08 23:58N 29°37' W 095°01'0 0.0
2018-Jun-08 23:28N 29°37' W 095°01'0 0.0
2018-Jun-08 22:58N 29°37' W 095°01'0 0.0
2018-Jun-08 22:28N 29°37' W 095°01'0 0.0
2018-Jun-08 21:52N 29°37' W 095°01'0 0.0
2018-Jun-08 21:28N 29°37' W 095°01'0 0.0
2018-Jun-08 20:54N 29°37' W 095°01'0 0.6
2018-Jun-08 20:31N 29°37' W 095°01'2 4.0
2018-Jun-08 20:01N 29°37' W 094°59'3 5.8
2018-Jun-08 19:31N 29°35' W 094°56'  
Track history (hours):
 
Tides and Currents Weather Stations Pressure Air Temp Water Temp Dewpoint Dewpoint Depression Visibility Wind Speed Wind Dir Waves Ship Positions

Stolt Stream

Last reported at 2018-Jun-18 15:28 UTC. Time now 2018-Jun-18 15:31 UTC.
Position N 28°54' W 095°13'.

Length 162 m; draft 9.9 m.

Type: Ship (hazmat cat A). MMSI: 319469000.

Date/timePositionNaut miles runAvg speedWind from/ knotsBaromVisibWave heightAir tempDewpointWater temp
2018-Jun-18 15:28N 28°54' W 095°13'0 0.0
2018-Jun-18 14:58N 28°54' W 095°13'0 0.0
2018-Jun-18 14:22N 28°54' W 095°13'0 0.0
2018-Jun-18 13:58N 28°54' W 095°13'0 0.0
2018-Jun-18 13:28N 28°54' W 095°13'0 0.0
2018-Jun-18 12:52N 28°54' W 095°13'0 0.0
2018-Jun-18 12:28N 28°54' W 095°13'0 0.0
2018-Jun-18 10:37N 28°54' W 095°13'0 0.1
2018-Jun-18 10:16N 28°54' W 095°13'0 0.0
2018-Jun-18 09:55N 28°54' W 095°13'0 0.0
2018-Jun-18 09:28N 28°54' W 095°13'0 0.0
2018-Jun-18 08:52N 28°54' W 095°13'0 0.0
2018-Jun-18 08:28N 28°54' W 095°13'0 0.0
2018-Jun-18 07:49N 28°54' W 095°13'0 0.0
2018-Jun-18 07:28N 28°54' W 095°13'0 0.0
2018-Jun-18 06:58N 28°54' W 095°13'0 0.0
2018-Jun-18 06:19N 28°54' W 095°13'0 0.0
2018-Jun-18 05:55N 28°54' W 095°13'0 0.0
2018-Jun-18 05:25N 28°54' W 095°13'0 0.0
2018-Jun-18 04:58N 28°54' W 095°13'0 0.0
2018-Jun-18 04:28N 28°54' W 095°13'0 0.0
2018-Jun-18 03:58N 28°54' W 095°13'0 0.0
2018-Jun-18 03:28N 28°54' W 095°13'0 0.0
2018-Jun-18 02:58N 28°54' W 095°13'0 0.0
2018-Jun-18 02:28N 28°54' W 095°13'0 0.0
2018-Jun-18 01:58N 28°54' W 095°13'0 0.0
2018-Jun-18 01:16N 28°54' W 095°13'0 0.1
2018-Jun-18 00:55N 28°54' W 095°13'0 0.0
2018-Jun-18 00:28N 28°54' W 095°13'0 0.0
2018-Jun-17 23:49N 28°54' W 095°13'0 0.0
2018-Jun-17 23:28N 28°54' W 095°13'0 0.0
2018-Jun-17 22:58N 28°54' W 095°13'0 0.0
2018-Jun-17 22:28N 28°54' W 095°13'0 0.0
2018-Jun-17 21:55N 28°54' W 095°13'0 0.0
2018-Jun-17 21:25N 28°54' W 095°13'0 0.0
2018-Jun-17 20:58N 28°54' W 095°13'0 0.0
2018-Jun-17 20:25N 28°54' W 095°13'0 0.0
2018-Jun-17 19:58N 28°54' W 095°13'0 0.0
2018-Jun-17 19:25N 28°54' W 095°13'0 0.0
2018-Jun-17 18:46N 28°54' W 095°13'0 0.0
2018-Jun-17 18:28N 28°54' W 095°13'0 0.0
2018-Jun-17 17:58N 28°54' W 095°13'0 0.0
2018-Jun-17 16:37N 28°54' W 095°13'0 0.1
2018-Jun-17 16:28N 28°54' W 095°13'0 0.0
2018-Jun-17 15:58N 28°54' W 095°13'0 0.0
2018-Jun-17 15:28N 28°54' W 095°13'0 0.0
2018-Jun-17 14:52N 28°54' W 095°13'0 0.0
2018-Jun-17 03:22N 28°54' W 095°13'0 0.0
2018-Jun-17 02:58N 28°54' W 095°13'0 0.0
2018-Jun-17 02:28N 28°54' W 095°13'0 0.0
2018-Jun-17 01:58N 28°54' W 095°13'0 0.0
2018-Jun-17 01:25N 28°54' W 095°13'0 0.0
2018-Jun-17 00:58N 28°54' W 095°13'0 0.1
2018-Jun-17 00:25N 28°54' W 095°13'0 0.0
2018-Jun-16 23:58N 28°54' W 095°13'0 0.0
2018-Jun-16 23:28N 28°54' W 095°13'0 0.0
2018-Jun-16 22:58N 28°54' W 095°13'0 0.0
2018-Jun-16 22:28N 28°54' W 095°13'0 0.0
2018-Jun-16 19:31N 28°54' W 095°13'0 0.0
2018-Jun-16 19:13N 28°54' W 095°13'0 0.0
2018-Jun-16 18:52N 28°54' W 095°13'0 0.0
2018-Jun-16 18:28N 28°54' W 095°13'0 0.0
2018-Jun-16 17:58N 28°54' W 095°13'0 0.0
2018-Jun-16 17:22N 28°54' W 095°13'0 0.0
2018-Jun-16 16:58N 28°54' W 095°13'0 0.0
2018-Jun-16 16:22N 28°54' W 095°13'0 0.3
2018-Jun-16 16:01N 28°54' W 095°13'4 7.5
2018-Jun-16 15:30N 28°53' W 095°09'612.7
2018-Jun-16 15:00N 28°52' W 095°02'2 3.3
2018-Jun-16 14:30N 28°50' W 095°03'1114.2
2018-Jun-16 13:46N 28°54' W 095°14'2 8.0
2018-Jun-16 13:30N 28°55' W 095°16'3 0.1
2018-Jun-15 08:21N 28°57' W 095°19'0 0.6
2018-Jun-15 07:59N 28°56' W 095°19'3 7.2
2018-Jun-15 07:30N 28°54' W 095°16'4 7.4
2018-Jun-15 06:59N 28°54' W 095°11'0 0.0
2018-Jun-15 04:53N 28°54' W 095°11'0 0.0
2018-Jun-15 04:17N 28°54' W 095°11'0 0.0
2018-Jun-15 03:59N 28°54' W 095°11'0 0.0
2018-Jun-15 03:02N 28°54' W 095°11'0 0.0
2018-Jun-15 02:59N 28°54' W 095°11'0 0.0
2018-Jun-15 02:29N 28°54' W 095°11'0 0.0
2018-Jun-15 01:59N 28°54' W 095°11'0 0.0
2018-Jun-15 01:26N 28°54' W 095°11'0 0.0
2018-Jun-15 00:59N 28°54' W 095°11'0 0.0
2018-Jun-15 00:29N 28°54' W 095°11'0 0.0
2018-Jun-14 23:59N 28°54' W 095°11'0 0.0
2018-Jun-14 23:29N 28°54' W 095°11'0 0.0
2018-Jun-14 22:56N 28°54' W 095°11'0 0.0
2018-Jun-14 22:26N 28°54' W 095°11'0 0.0
2018-Jun-14 21:59N 28°54' W 095°11'0 0.0
2018-Jun-14 21:20N 28°54' W 095°11'0 0.0
2018-Jun-14 20:56N 28°54' W 095°11'0 0.0
2018-Jun-14 20:29N 28°54' W 095°11'0 0.0
2018-Jun-14 19:50N 28°54' W 095°11'0 0.0
2018-Jun-14 17:38N 28°54' W 095°11'0 0.1
2018-Jun-14 17:29N 28°54' W 095°11'0 0.0
2018-Jun-14 16:26N 28°54' W 095°11'0 0.0
2018-Jun-14 15:59N 28°54' W 095°11'0 0.0
2018-Jun-14 15:26N 28°54' W 095°11'0 0.0
2018-Jun-14 14:59N 28°54' W 095°11'0 0.0
2018-Jun-14 14:29N 28°54' W 095°11'0 0.0
2018-Jun-14 13:56N 28°54' W 095°11'0 0.0
2018-Jun-14 13:29N 28°54' W 095°11'0 0.1
2018-Jun-14 12:59N 28°54' W 095°11'3 6.0
2018-Jun-14 12:29N 28°51' W 095°12'510.6
2018-Jun-14 11:58N 28°47' W 095°08'3 7.4
2018-Jun-14 11:30N 28°46' W 095°05'4 8.3
2018-Jun-14 11:00N 28°48' W 095°01'4 8.1
2018-Jun-14 10:29N 28°50' W 094°57'4 8.0
2018-Jun-14 10:00N 28°52' W 094°53'4 7.9
2018-Jun-14 09:30N 28°54' W 094°49'4 8.1
2018-Jun-14 09:00N 28°57' W 094°46'4 8.5
2018-Jun-14 08:29N 28°59' W 094°42'15 9.0
2018-Jun-14 06:49N 29°11' W 094°30'411.7
2018-Jun-14 06:30N 29°14' W 094°33'610.9
2018-Jun-14 06:00N 29°18' W 094°37'611.8
2018-Jun-14 05:30N 29°21' W 094°43'713.3
2018-Jun-14 05:00N 29°24' W 094°49'814.6
2018-Jun-14 04:29N 29°31' W 094°53'613.3
2018-Jun-14 04:00N 29°36' W 094°57'510.8
2018-Jun-14 03:30N 29°41' W 094°59'4 8.5
2018-Jun-14 03:00N 29°44' W 095°03'2 0.1
2018-Jun-12 20:53N 29°42' W 095°01'411.1
2018-Jun-12 20:30N 29°39' W 094°58'611.7
2018-Jun-12 20:00N 29°34' W 094°55'913.2
2018-Jun-12 19:19N 29°26' W 094°50'413.2
2018-Jun-12 19:00N 29°22' W 094°48'612.7
2018-Jun-12 18:30N 29°20' W 094°41'510.9
2018-Jun-12 18:00N 29°18' W 094°35'2 3.8
2018-Jun-12 17:30N 29°18' W 094°33'1 0.0
2018-Jun-11 05:05N 29°19' W 094°34'0 1.6
2018-Jun-11 05:00N 29°19' W 094°34'3 6.6
2018-Jun-11 04:29N 29°16' W 094°33'611.0
2018-Jun-11 03:58N 29°12' W 094°27'31 0.9
2018-Jun-09 18:08N 29°32' W 094°54'212.9
2018-Jun-09 18:00N 29°34' W 094°55'510.1
2018-Jun-09 17:30N 29°37' W 094°60'1 2.9
2018-Jun-09 17:00N 29°37' W 095°01'0 0.0
2018-Jun-09 16:28N 29°37' W 095°01'0 0.0
2018-Jun-09 15:58N 29°37' W 095°01'0 0.0
2018-Jun-09 14:55N 29°37' W 095°01'0 0.0
2018-Jun-09 14:22N 29°37' W 095°01'0 0.0
2018-Jun-09 13:58N 29°37' W 095°01'0 0.0
2018-Jun-09 13:28N 29°37' W 095°01'0 0.0
2018-Jun-09 12:58N 29°37' W 095°01'0 0.0
2018-Jun-09 12:19N 29°37' W 095°01'0 0.0
2018-Jun-09 11:58N 29°37' W 095°01'0 0.0
2018-Jun-09 11:28N 29°37' W 095°01'0 0.0
2018-Jun-09 10:58N 29°37' W 095°01'0 0.0
2018-Jun-09 10:25N 29°37' W 095°01'0 0.0
2018-Jun-09 09:55N 29°37' W 095°01'0 0.0
2018-Jun-09 09:28N 29°37' W 095°01'0 0.0
2018-Jun-09 08:58N 29°37' W 095°01'0 0.0
2018-Jun-09 08:22N 29°37' W 095°01'0 0.0
2018-Jun-09 07:58N 29°37' W 095°01'0 0.0
2018-Jun-09 07:25N 29°37' W 095°01'0 0.0
2018-Jun-09 06:55N 29°37' W 095°01'0 0.0
2018-Jun-09 06:25N 29°37' W 095°01'0 0.0
2018-Jun-09 05:58N 29°37' W 095°01'0 0.0
2018-Jun-09 05:25N 29°37' W 095°01'0 0.0
2018-Jun-09 04:58N 29°37' W 095°01'0 0.0
2018-Jun-09 04:28N 29°37' W 095°01'0 0.0
2018-Jun-09 03:58N 29°37' W 095°01'0 0.0
2018-Jun-09 03:28N 29°37' W 095°01'0 0.0
2018-Jun-09 02:55N 29°37' W 095°01'0 0.0
2018-Jun-09 02:28N 29°37' W 095°01'0 0.0
2018-Jun-09 01:58N 29°37' W 095°01'0 0.0
2018-Jun-09 01:25N 29°37' W 095°01'0 0.0
2018-Jun-09 00:55N 29°37' W 095°01'0 0.0
2018-Jun-09 00:28N 29°37' W 095°01'0 0.0
2018-Jun-08 23:58N 29°37' W 095°01'0 0.0
2018-Jun-08 23:28N 29°37' W 095°01'0 0.0
2018-Jun-08 22:58N 29°37' W 095°01'0 0.0
2018-Jun-08 22:28N 29°37' W 095°01'0 0.0
2018-Jun-08 21:52N 29°37' W 095°01'0 0.0
2018-Jun-08 21:28N 29°37' W 095°01'0 0.0
2018-Jun-08 20:54N 29°37' W 095°01'0 0.6
2018-Jun-08 20:31N 29°37' W 095°01'2 4.0
2018-Jun-08 20:01N 29°37' W 094°59'3 5.8
2018-Jun-08 19:31N 29°35' W 094°56'  

Dump ship's entire track history